Aviation Digital Data Service (ADDS)

Output produced by METARs form (0640 UTC 27 March 2017)
found at http://www.aviationweather.gov/adds/metars/
 
FKKD 270600Z 16002KT 8000 TS BKN013 FEW016CB 24/23 Q1010 TEMPO 3000 -TSRA
TAF FKKD 270500Z 2706/2812 24005KT 6000 TS BKN010 FEW016CB 
     BECMG 2708/2710 NSW BKN016 FEW020CB 
     TEMPO 2800/2807 TS BKN013 FEW016CB
       
FKKR 270600Z 11003KT 5000 HZ NSC 28/06 Q1010
FKKN 270600Z 28004KT CAVOK 17/13 Q1017
FKYS 270600Z 02003KT 320V080 8000 TS SCT006 FEW016CB 20/20 Q1016 BECMG NSW
TAF FKYS 270500Z 2706/2806 22005KT 6000 TSRA BKN006 SCT016CB 
     BECMG 2708/2710 NSW BKN013 
     BECMG 2721/2723 BKN006